• Join FlightAware (Why Join?)
  • Login
  • US Flag 
06:16PM EST


 

Airport Tracker/Info


-or-


 

Live Flight TrackerFlight Track Log ✈ UAL3779 ✈ 16-Apr-2013 ✈ KOKC - KORD

Flight Track Log - Related Links

Times and Time Zones

All times are in EDT time to prevent confusion due to time zone crossing. See the UAL3779 flight status page for this flight to view local times or setup timezone preferences in your user account.

Time Position Orientation Groundspeed Altitude Reporting Facility
EDT Latitude Longitude Course Direction KTS MPH feet Rate Location/Type
07:03AM 35.4019 -97.6097 North 172 198 2,100  Level Fort Worth Center
07:03AM 35.4331 -97.6047 North 194 223 3,500 2,259 Climbing Fort Worth Center
07:04AM 35.4750 -97.5692 35° Northeast 264 304 5,300 2,031 Climbing Fort Worth Center
07:05AM 35.5167 -97.4644 64° Northeast 295 339 7,800 2,000 Climbing Fort Worth Center
07:07AM 35.5744 -97.3247 63° Northeast 321 369 10,800 1,907 Climbing Kansas City Center
07:08AM 35.6181 -97.2181 63° Northeast 340 391 12,600 2,016 Climbing Kansas City Center
07:09AM 35.6656 -97.1008 63° Northeast 371 427 14,900 2,049 Climbing Kansas City Center
07:10AM 35.7142 -96.9844 63° Northeast 381 438 16,800 1,686 Climbing Kansas City Center
07:11AM 35.7644 -96.8608 63° Northeast 396 456 18,300 1,600 Climbing Kansas City Center
07:12AM 35.8172 -96.7294 64° Northeast 420 483 20,000 1,600 Climbing Kansas City Center
07:13AM 35.8739 -96.5944 63° Northeast 437 503 21,500 1,512 Climbing Kansas City Center
07:14AM 35.9300 -96.4533 64° Northeast 454 522 23,100 1,550 Climbing Kansas City Center
07:15AM 35.9992 -96.2825 63° Northeast 468 539 24,600 1,361 Climbing Kansas City Center
07:16AM 36.0600 -96.1319 63° Northeast 482 555 25,800 1,082 Climbing Kansas City Center
07:17AM 36.1222 -95.9761 64° Northeast 497 572 26,800 927 Climbing Kansas City Center
07:18AM 36.1847 -95.8181 64° Northeast 507 583 27,700 829 Climbing Kansas City Center
07:19AM 36.2533 -95.6581 62° Northeast 515 593 28,500 756 Climbing Kansas City Center
07:20AM 36.3331 -95.5075 57° Northeast 516 594 29,200 650 Climbing Kansas City Center
07:21AM 36.4072 -95.3503 60° Northeast 525 604 29,800 629 Climbing Kansas City Center
07:22AM 36.4844 -95.1925 59° Northeast 532 612 30,500 780 Climbing Kansas City Center
07:23AM 36.5533 -95.0489 59° Northeast 531 611 31,400 857 Climbing Kansas City Center
07:24AM 36.6281 -94.8919 59° Northeast 529 609 32,200 807 Climbing Kansas City Center
07:25AM 36.7036 -94.7339 59° Northeast 530 610 33,000 885 Climbing Kansas City Center
07:26AM 36.7931 -94.5422 60° Northeast 531 611 34,000 878 Climbing Kansas City Center
07:27AM 36.8844 -94.3994 51° Northeast 528 608 34,800 787 Climbing Kansas City Center
07:28AM 36.9961 -94.2886 38° Northeast 517 595 35,600 787 Climbing Kansas City Center
07:29AM 37.1108 -94.1772 38° Northeast 518 596 36,400 793 Climbing Kansas City Center
07:30AM 37.2250 -94.0661 38° Northeast 514 592 37,200 807 Climbing Kansas City Center
07:31AM 37.3378 -93.9542 38° Northeast 514 592 38,000 774 Climbing Kansas City Center
07:32AM 37.4486 -93.8425 39° Northeast 510 587 38,800 484 Climbing Kansas City Center
07:33AM 37.5592 -93.7314 39° Northeast 506 582 39,000 98 Climbing Kansas City Center
07:34AM 37.6728 -93.6167 39° Northeast 516 594 39,000  Level Kansas City Center
07:35AM 37.7864 -93.5017 39° Northeast 519 597 39,000  Level Kansas City Center
07:36AM 37.9036 -93.3839 38° Northeast 527 606 39,000  Level Kansas City Center
07:37AM 38.0194 -93.2653 39° Northeast 531 611 39,000  Level Kansas City Center
07:38AM 38.1342 -93.1472 39° Northeast 528 608 39,000  Level Kansas City Center
07:39AM 38.2506 -93.0306 38° Northeast 527 606 39,000  Level Kansas City Center
07:40AM 38.3619 -92.9161 39° Northeast 516 594 39,000  Level Kansas City Center
07:41AM 38.4722 -92.8014 39° Northeast 509 586 39,000  Level Kansas City Center
07:42AM 38.5822 -92.6883 39° Northeast 505 581 39,000  Level Kansas City Center
07:43AM 38.6919 -92.5728 39° Northeast 505 581 39,000  Level Kansas City Center
07:44AM 38.8011 -92.4583 39° Northeast 504 580 39,000  Level Kansas City Center
07:45AM 38.9103 -92.3444 39° Northeast 502 578 39,000  Level Kansas City Center
07:46AM 39.0194 -92.2300 39° Northeast 502 578 39,000  Level Kansas City Center
07:47AM 39.1261 -92.1094 41° Northeast 504 580 39,000  Level Kansas City Center
07:48AM 39.2125 -91.9556 54° Northeast 517 595 39,000  Level Kansas City Center
07:49AM 39.2958 -91.8125 53° Northeast 527 606 39,000 -150 Level Kansas City Center
07:50AM 39.3872 -91.6525 54° Northeast 528 608 38,700 -645 Descending Kansas City Center
07:51AM 39.4739 -91.5006 54° Northeast 526 605 37,700 -1,008 Descending Kansas City Center
07:52AM 39.5694 -91.3300 54° Northeast 526 605 36,600 -992 Descending Kansas City Center
07:53AM 39.6461 -91.1947 54° Northeast 524 603 35,700 -934 Descending Kansas City Center
07:55AM 39.7381 -91.0550 49° Northeast 515 593 34,700 -1,024 Descending Kansas City Center
07:56AM 39.8522 -90.9392 38° Northeast 501 577 33,600 -843 Descending Kansas City Center
07:57AM 39.9631 -90.8267 38° Northeast 503 579 33,000 -295 Descending Kansas City Center
07:58AM 40.0961 -90.6911 38° Northeast 505 581 33,000  Level Kansas City Center
07:59AM 40.2103 -90.5758 38° Northeast 512 589 33,000  Level Kansas City Center
08:00AM 40.3225 -90.4606 38° Northeast 514 592 33,000  Level Kansas City Center
08:00AM 40.3456 -90.4369 38° Northeast 515 593 33,000  Level Chicago Center
08:01AM 40.4600 -90.3200 38° Northeast 518 596 33,000  Level Chicago Center
08:02AM 40.5689 -90.2075 38° Northeast 512 589 33,000  Level Chicago Center
08:03AM 40.7050 -90.0692 38° Northeast 515 593 33,000 -97 Level Chicago Center
08:04AM 40.8181 -89.9514 38° Northeast 519 597 32,800 -1,561 Descending Chicago Center
08:05AM 40.9278 -89.8356 39° Northeast 509 586 29,800 -2,829 Descending Chicago Center
08:06AM 41.0269 -89.7306 39° Northeast 501 577 27,000 -3,000 Descending Chicago Center
08:07AM 41.1536 -89.5922 39° Northeast 492 566 23,600 -2,855 Descending Chicago Center
08:08AM 41.2258 -89.4267 60° Northeast 515 593 21,100 -2,439 Descending Chicago Center
08:09AM 41.2928 -89.2614 62° Northeast 510 587 18,600 -2,390 Descending Chicago Center
08:10AM 41.3581 -89.0978 62° Northeast 481 554 16,200 -2,371 Descending Chicago Center
08:11AM 41.4158 -88.9506 62° Northeast 453 521 13,700 -2,274 Descending Chicago Center
08:12AM 41.4731 -88.8067 62° Northeast 443 510 11,500 -1,306 Descending Chicago Center
08:13AM 41.5294 -88.6678 61° Northeast 430 495 11,000 -195 Descending Chicago Center
08:14AM 41.5806 -88.5358 63° Northeast 406 467 11,100 -49 Climbing Chicago Center
08:15AM 41.6406 -88.4122 57° Northeast 399 459 10,900 -726 Descending Chicago Center
08:16AM 41.7133 -88.2892 52° Northeast 347 399 9,600 -1,306 Descending Chicago Center
08:17AM 41.7689 -88.1931 52° Northeast 329 379 8,200 -774 Descending Chicago Center
08:18AM 41.8194 -88.1053 52° Northeast 304 350 8,000 -97 Descending Chicago Center
08:19AM 41.8622 -88.0300 53° Northeast 267 307 8,000  Level Chicago Center
08:20AM 41.8847 -87.9542 68° East 234 269 8,000 -49 Level Chicago Center
08:21AM 41.8842 -87.8711 90° East 223 257 7,900 -585 Descending Chicago Center
08:22AM 41.8836 -87.7864 90° East 227 261 6,800 -1,108 Descending Chicago Center
08:24AM 41.8833 -87.6833 90° East 205 236 5,500 -1,078 Descending Chicago TRACON
08:25AM 41.9167 -87.6500 37° Northeast 198 228 4,500 -810 Descending Chicago TRACON
08:26AM 41.9500 -87.6833 323° Northwest 161 185 3,800 -762 Descending Chicago TRACON
08:27AM 41.9667 -87.7333 294° West 160 184 2,900 -850 Descending Chicago TRACON
08:28AM 41.9667 -87.8000 270° West 152 175 2,100 -750 Descending Chicago TRACON
08:29AM 41.9667 -87.8500 270° West 124 143 1,400 -700 Descending Chicago TRACON
08:31AM 41.9667 -87.9000 277° West  Level FlightAware Approximate